West Plains, MO

12:37 PM CDT on May 04, 2015 (GMT -0500)
Marion County Regional | | Change Station
CLOSE
Current Station
Airport
Location: Flippin,
Elevation: 715 ft
Nearby Weather Stations

Elev 715 ft 36.29 °N, 92.59 °W | Updated 22 minutes ago

Partly Cloudy
Partly Cloudy
81 °F
Feels Like 80 °F
N
5
Wind Variable Wind from SSW

Today
High -- | Low -- °F
--% Chance of Precip.
Yesterday
High -- | Low -- °F
Precip. -- in
6:10 AM 7:58 PM
Full, 100% visible
Pressure 30.15 in
Visibility 10.0 miles
Clouds Scattered Clouds 5000 ft
Heat Index 80 °F
Dew Point 55 °F
Humidity 42%
Rainfall 0.00 in
Snow Depth Not available.
UV 9 out of 12
Pollen 10.70 out of 12
Air Quality Not available.
Flu Activity Sporadic
METAR KFLP 041715Z AUTO 20004KT 10SM SCT050 27/13 A3015 RMK AO1

More Conditions Fewer Conditions

Pressure 30.15 in
Visibility 10.0 miles
Clouds Scattered Clouds 5000 ft
Heat Index 80 °F
Dew Point 55 °F
Humidity 42%
Rainfall 0.00 in
Snow Depth Not available.
UV 9 out of 12
Pollen 10.70 out of 12
Air Quality Not available.
Flu Activity Sporadic
METAR KFLP 041715Z AUTO 20004KT 10SM SCT050 27/13 A3015 RMK AO1

More Conditions Fewer Conditions

Nepal has a long way to go to dig out and rebuild from a devastating earthquake. We have teamed up with several charities and organizations to make contributing to the relief effort as easy as possible.
How you can help: Portlight Strategies | Red Cross

10-Day Weather Forecast

Almanac

Astronomy

May. 04, 2015 Rise Set
Actual Time
Civil Twilight
Nautical Twilight
Astronomical Twilight
Moon
Length of Visible Light
Length of Day
Tomorrow will be .
, % of the Moon is Illuminated

Today's Extremes

State Highs State Lows

Community

WunderPhotos

Upload Photos

1,818,659 photos uploaded!

WunderBlogs® & News

Nearby

Air Quality

  Air Quality AQ Index Pollutant
Not available.

Snow Depth

Station Depth Elevation

Earthquake Activity

City Distance Mag. Time & Date
Minimum magnitude displayed is 2.5.

Coastal Water Temperatures

Place Temperature

Stations

Nearby Weather Stations

Station Location Temp. Windchill Dew Point Humidity Wind Precip. Elev Updated Type